sensor_id;sensor_type;location;lat;lon;timestamp;temperature;humidity
16200;DHT22;8207;52.494;4.654;2022-08-20T00:00:35;19.30;99.90
16200;DHT22;8207;52.494;4.654;2022-08-20T00:03:08;19.20;99.90
16200;DHT22;8207;52.494;4.654;2022-08-20T00:05:41;19.20;99.90
16200;DHT22;8207;52.494;4.654;2022-08-20T00:08:09;19.20;99.90
16200;DHT22;8207;52.494;4.654;2022-08-20T00:10:38;19.20;99.90
16200;DHT22;8207;52.494;4.654;2022-08-20T00:13:07;19.20;99.90
16200;DHT22;8207;52.494;4.654;2022-08-20T00:15:35;19.20;99.90
16200;DHT22;8207;52.494;4.654;2022-08-20T00:18:05;19.20;99.90
16200;DHT22;8207;52.494;4.654;2022-08-20T00:20:34;19.20;99.90
16200;DHT22;8207;52.494;4.654;2022-08-20T00:23:04;19.20;99.90
16200;DHT22;8207;52.494;4.654;2022-08-20T00:25:31;19.20;99.90
16200;DHT22;8207;52.494;4.654;2022-08-20T00:27:59;19.20;99.90
16200;DHT22;8207;52.494;4.654;2022-08-20T00:30:29;19.20;99.90
16200;DHT22;8207;52.494;4.654;2022-08-20T00:32:58;19.20;99.90
16200;DHT22;8207;52.494;4.654;2022-08-20T00:35:28;19.10;99.90
16200;DHT22;8207;52.494;4.654;2022-08-20T00:37:55;19.10;99.90
16200;DHT22;8207;52.494;4.654;2022-08-20T00:40:34;19.10;99.90
16200;DHT22;8207;52.494;4.654;2022-08-20T00:43:05;19.00;99.90
16200;DHT22;8207;52.494;4.654;2022-08-20T00:45:33;19.00;99.90
16200;DHT22;8207;52.494;4.654;2022-08-20T00:48:01;19.00;99.90
16200;DHT22;8207;52.494;4.654;2022-08-20T00:50:32;19.00;99.90
16200;DHT22;8207;52.494;4.654;2022-08-20T00:53:02;18.90;99.90
16200;DHT22;8207;52.494;4.654;2022-08-20T00:55:31;18.90;99.90
16200;DHT22;8207;52.494;4.654;2022-08-20T00:58:02;18.90;99.90
16200;DHT22;8207;52.494;4.654;2022-08-20T01:00:35;18.90;99.90
16200;DHT22;8207;52.494;4.654;2022-08-20T01:03:04;18.80;99.90
16200;DHT22;8207;52.494;4.654;2022-08-20T01:05:35;18.80;99.90
16200;DHT22;8207;52.494;4.654;2022-08-20T01:08:03;18.70;99.90
16200;DHT22;8207;52.494;4.654;2022-08-20T01:10:35;18.70;99.90
16200;DHT22;8207;52.494;4.654;2022-08-20T01:13:06;18.60;99.90
16200;DHT22;8207;52.494;4.654;2022-08-20T01:15:36;18.60;99.90
16200;DHT22;8207;52.494;4.654;2022-08-20T01:18:05;18.50;99.90
16200;DHT22;8207;52.494;4.654;2022-08-20T01:20:38;18.50;99.90
16200;DHT22;8207;52.494;4.654;2022-08-20T01:23:10;18.40;99.90
16200;DHT22;8207;52.494;4.654;2022-08-20T01:26:00;18.40;99.90
16200;DHT22;8207;52.494;4.654;2022-08-20T01:28:35;18.30;99.90
16200;DHT22;8207;52.494;4.654;2022-08-20T01:31:04;18.20;99.90
16200;DHT22;8207;52.494;4.654;2022-08-20T01:33:32;18.20;99.90
16200;DHT22;8207;52.494;4.654;2022-08-20T01:35:59;18.10;99.90
16200;DHT22;8207;52.494;4.654;2022-08-20T01:38:27;18.00;99.90
16200;DHT22;8207;52.494;4.654;2022-08-20T01:41:09;18.00;99.90
16200;DHT22;8207;52.494;4.654;2022-08-20T01:43:39;17.90;99.90
16200;DHT22;8207;52.494;4.654;2022-08-20T01:46:08;17.90;99.90
16200;DHT22;8207;52.494;4.654;2022-08-20T01:48:36;17.80;99.90
16200;DHT22;8207;52.494;4.654;2022-08-20T01:51:06;17.80;99.90
16200;DHT22;8207;52.494;4.654;2022-08-20T01:53:35;17.70;99.90
16200;DHT22;8207;52.494;4.654;2022-08-20T01:56:07;17.70;99.90
16200;DHT22;8207;52.494;4.654;2022-08-20T01:58:38;17.60;99.90
16200;DHT22;8207;52.494;4.654;2022-08-20T02:01:05;17.60;99.90
16200;DHT22;8207;52.494;4.654;2022-08-20T02:03:32;17.50;99.90
16200;DHT22;8207;52.494;4.654;2022-08-20T02:06:01;17.50;99.90
16200;DHT22;8207;52.494;4.654;2022-08-20T02:08:29;17.50;99.90
16200;DHT22;8207;52.494;4.654;2022-08-20T02:10:57;17.50;99.90
16200;DHT22;8207;52.494;4.654;2022-08-20T02:13:26;17.40;99.90
16200;DHT22;8207;52.494;4.654;2022-08-20T02:15:52;17.40;99.90
16200;DHT22;8207;52.494;4.654;2022-08-20T02:18:20;17.30;99.90
16200;DHT22;8207;52.494;4.654;2022-08-20T02:20:47;17.30;99.90
16200;DHT22;8207;52.494;4.654;2022-08-20T02:23:15;17.20;99.90
16200;DHT22;8207;52.494;4.654;2022-08-20T02:25:45;17.20;99.90
16200;DHT22;8207;52.494;4.654;2022-08-20T02:28:16;17.10;99.90
16200;DHT22;8207;52.494;4.654;2022-08-20T02:30:48;17.10;99.90
16200;DHT22;8207;52.494;4.654;2022-08-20T02:33:18;17.10;99.90
16200;DHT22;8207;52.494;4.654;2022-08-20T02:35:47;17.00;99.90
16200;DHT22;8207;52.494;4.654;2022-08-20T02:38:15;17.00;99.90
16200;DHT22;8207;52.494;4.654;2022-08-20T02:40:43;16.90;99.90
16200;DHT22;8207;52.494;4.654;2022-08-20T02:43:11;16.90;99.90
16200;DHT22;8207;52.494;4.654;2022-08-20T02:45:39;16.80;99.90
16200;DHT22;8207;52.494;4.654;2022-08-20T02:48:13;16.80;99.90
16200;DHT22;8207;52.494;4.654;2022-08-20T02:50:46;16.80;99.90
16200;DHT22;8207;52.494;4.654;2022-08-20T02:53:14;16.70;99.90
16200;DHT22;8207;52.494;4.654;2022-08-20T02:55:42;16.70;99.90
16200;DHT22;8207;52.494;4.654;2022-08-20T02:58:09;16.70;99.90
16200;DHT22;8207;52.494;4.654;2022-08-20T03:00:37;16.60;99.90
16200;DHT22;8207;52.494;4.654;2022-08-20T03:03:05;16.60;99.90
16200;DHT22;8207;52.494;4.654;2022-08-20T03:05:34;16.60;99.90
16200;DHT22;8207;52.494;4.654;2022-08-20T03:08:02;16.50;99.90
16200;DHT22;8207;52.494;4.654;2022-08-20T03:10:31;16.50;99.90
16200;DHT22;8207;52.494;4.654;2022-08-20T03:13:00;16.50;99.90
16200;DHT22;8207;52.494;4.654;2022-08-20T03:15:28;16.50;99.90
16200;DHT22;8207;52.494;4.654;2022-08-20T03:17:56;16.40;99.90
16200;DHT22;8207;52.494;4.654;2022-08-20T03:20:24;16.40;99.90
16200;DHT22;8207;52.494;4.654;2022-08-20T03:22:52;16.40;99.90
16200;DHT22;8207;52.494;4.654;2022-08-20T03:25:19;16.30;99.90
16200;DHT22;8207;52.494;4.654;2022-08-20T03:27:46;16.30;99.90
16200;DHT22;8207;52.494;4.654;2022-08-20T03:30:16;16.30;99.90
16200;DHT22;8207;52.494;4.654;2022-08-20T03:32:44;16.20;99.90
16200;DHT22;8207;52.494;4.654;2022-08-20T03:35:13;16.20;99.90
16200;DHT22;8207;52.494;4.654;2022-08-20T03:37:40;16.10;99.90
16200;DHT22;8207;52.494;4.654;2022-08-20T03:40:12;16.10;99.90
16200;DHT22;8207;52.494;4.654;2022-08-20T03:42:41;16.00;99.90
16200;DHT22;8207;52.494;4.654;2022-08-20T03:45:09;16.00;99.90
16200;DHT22;8207;52.494;4.654;2022-08-20T03:47:36;16.00;99.90
16200;DHT22;8207;52.494;4.654;2022-08-20T03:50:08;15.90;99.90
16200;DHT22;8207;52.494;4.654;2022-08-20T03:52:35;15.90;99.90
16200;DHT22;8207;52.494;4.654;2022-08-20T03:55:03;15.80;99.90
16200;DHT22;8207;52.494;4.654;2022-08-20T03:57:31;15.80;99.90
16200;DHT22;8207;52.494;4.654;2022-08-20T03:59:58;15.80;99.90
16200;DHT22;8207;52.494;4.654;2022-08-20T04:02:25;15.80;99.90
16200;DHT22;8207;52.494;4.654;2022-08-20T04:04:53;15.80;99.90
16200;DHT22;8207;52.494;4.654;2022-08-20T04:07:24;15.70;99.90
16200;DHT22;8207;52.494;4.654;2022-08-20T04:09:51;15.70;99.90
16200;DHT22;8207;52.494;4.654;2022-08-20T04:12:18;15.70;99.90
16200;DHT22;8207;52.494;4.654;2022-08-20T04:14:47;15.70;99.90
16200;DHT22;8207;52.494;4.654;2022-08-20T04:17:17;15.60;99.90
16200;DHT22;8207;52.494;4.654;2022-08-20T04:19:44;15.60;99.90
16200;DHT22;8207;52.494;4.654;2022-08-20T04:22:12;15.50;99.90
16200;DHT22;8207;52.494;4.654;2022-08-20T04:24:40;15.50;99.90
16200;DHT22;8207;52.494;4.654;2022-08-20T04:27:07;15.50;99.90
16200;DHT22;8207;52.494;4.654;2022-08-20T04:29:35;15.40;99.90
16200;DHT22;8207;52.494;4.654;2022-08-20T04:32:04;15.40;99.90
16200;DHT22;8207;52.494;4.654;2022-08-20T04:34:32;15.40;99.90
16200;DHT22;8207;52.494;4.654;2022-08-20T04:36:59;15.40;99.90
16200;DHT22;8207;52.494;4.654;2022-08-20T04:39:26;15.40;99.90
16200;DHT22;8207;52.494;4.654;2022-08-20T04:41:52;15.30;99.90
16200;DHT22;8207;52.494;4.654;2022-08-20T04:44:19;15.30;99.90
16200;DHT22;8207;52.494;4.654;2022-08-20T04:46:47;15.30;99.90
16200;DHT22;8207;52.494;4.654;2022-08-20T04:49:15;15.20;99.90
16200;DHT22;8207;52.494;4.654;2022-08-20T04:51:42;15.20;99.90
16200;DHT22;8207;52.494;4.654;2022-08-20T04:54:09;15.20;99.90
16200;DHT22;8207;52.494;4.654;2022-08-20T04:56:38;15.20;99.90
16200;DHT22;8207;52.494;4.654;2022-08-20T04:59:05;15.20;99.90
16200;DHT22;8207;52.494;4.654;2022-08-20T05:01:32;15.20;99.90
16200;DHT22;8207;52.494;4.654;2022-08-20T05:03:59;15.10;99.90
16200;DHT22;8207;52.494;4.654;2022-08-20T05:06:30;15.10;99.90
16200;DHT22;8207;52.494;4.654;2022-08-20T05:08:59;15.10;99.90
16200;DHT22;8207;52.494;4.654;2022-08-20T05:11:27;15.10;99.90
16200;DHT22;8207;52.494;4.654;2022-08-20T05:13:54;15.10;99.90
16200;DHT22;8207;52.494;4.654;2022-08-20T05:16:21;15.10;99.90
16200;DHT22;8207;52.494;4.654;2022-08-20T05:18:49;15.10;99.90
16200;DHT22;8207;52.494;4.654;2022-08-20T05:21:16;15.10;99.90
16200;DHT22;8207;52.494;4.654;2022-08-20T05:23:45;15.10;99.90
16200;DHT22;8207;52.494;4.654;2022-08-20T05:26:12;15.10;99.90
16200;DHT22;8207;52.494;4.654;2022-08-20T05:28:41;15.10;99.90
16200;DHT22;8207;52.494;4.654;2022-08-20T05:31:09;15.10;99.90
16200;DHT22;8207;52.494;4.654;2022-08-20T05:33:37;15.10;99.90
16200;DHT22;8207;52.494;4.654;2022-08-20T05:36:05;15.10;99.90
16200;DHT22;8207;52.494;4.654;2022-08-20T05:38:33;15.20;99.90
16200;DHT22;8207;52.494;4.654;2022-08-20T05:41:03;15.20;99.90
16200;DHT22;8207;52.494;4.654;2022-08-20T05:43:30;15.20;99.90
16200;DHT22;8207;52.494;4.654;2022-08-20T05:45:58;15.20;99.90
16200;DHT22;8207;52.494;4.654;2022-08-20T05:48:26;15.20;99.90
16200;DHT22;8207;52.494;4.654;2022-08-20T05:50:53;15.20;99.90
16200;DHT22;8207;52.494;4.654;2022-08-20T05:53:21;15.30;99.90
16200;DHT22;8207;52.494;4.654;2022-08-20T05:55:48;15.40;99.90
16200;DHT22;8207;52.494;4.654;2022-08-20T05:58:19;15.40;99.90
16200;DHT22;8207;52.494;4.654;2022-08-20T06:00:48;15.40;99.90
16200;DHT22;8207;52.494;4.654;2022-08-20T06:03:15;15.50;99.90
16200;DHT22;8207;52.494;4.654;2022-08-20T06:06:00;15.50;99.90
16200;DHT22;8207;52.494;4.654;2022-08-20T06:08:27;15.50;99.90
16200;DHT22;8207;52.494;4.654;2022-08-20T06:10:54;15.60;99.90
16200;DHT22;8207;52.494;4.654;2022-08-20T06:13:23;15.60;99.90
16200;DHT22;8207;52.494;4.654;2022-08-20T06:15:50;15.70;99.90
16200;DHT22;8207;52.494;4.654;2022-08-20T06:18:18;15.80;99.90
16200;DHT22;8207;52.494;4.654;2022-08-20T06:20:45;15.80;99.90
16200;DHT22;8207;52.494;4.654;2022-08-20T06:23:12;15.80;99.90
16200;DHT22;8207;52.494;4.654;2022-08-20T06:25:39;15.90;99.90
16200;DHT22;8207;52.494;4.654;2022-08-20T06:28:06;15.90;99.90
16200;DHT22;8207;52.494;4.654;2022-08-20T06:30:35;16.00;99.90
16200;DHT22;8207;52.494;4.654;2022-08-20T06:33:01;16.10;99.90
16200;DHT22;8207;52.494;4.654;2022-08-20T06:35:28;16.20;99.90
16200;DHT22;8207;52.494;4.654;2022-08-20T06:37:55;16.20;99.90
16200;DHT22;8207;52.494;4.654;2022-08-20T06:40:26;16.30;99.90
16200;DHT22;8207;52.494;4.654;2022-08-20T06:42:55;16.40;99.90
16200;DHT22;8207;52.494;4.654;2022-08-20T06:45:29;16.50;99.90
16200;DHT22;8207;52.494;4.654;2022-08-20T06:47:59;16.60;99.90
16200;DHT22;8207;52.494;4.654;2022-08-20T06:50:29;16.70;99.90
16200;DHT22;8207;52.494;4.654;2022-08-20T06:52:56;16.70;99.90
16200;DHT22;8207;52.494;4.654;2022-08-20T06:55:24;16.80;99.90
16200;DHT22;8207;52.494;4.654;2022-08-20T06:57:58;17.00;99.90
16200;DHT22;8207;52.494;4.654;2022-08-20T07:00:27;17.20;99.90
16200;DHT22;8207;52.494;4.654;2022-08-20T07:02:55;17.50;99.90
16200;DHT22;8207;52.494;4.654;2022-08-20T07:05:25;17.70;99.90
16200;DHT22;8207;52.494;4.654;2022-08-20T07:07:52;18.00;99.90
16200;DHT22;8207;52.494;4.654;2022-08-20T07:10:21;18.20;99.90
16200;DHT22;8207;52.494;4.654;2022-08-20T07:12:49;18.40;99.90
16200;DHT22;8207;52.494;4.654;2022-08-20T07:15:17;18.80;99.90
16200;DHT22;8207;52.494;4.654;2022-08-20T07:17:48;19.10;99.90
16200;DHT22;8207;52.494;4.654;2022-08-20T07:20:16;19.50;99.90
16200;DHT22;8207;52.494;4.654;2022-08-20T07:22:44;19.90;99.90
16200;DHT22;8207;52.494;4.654;2022-08-20T07:25:14;20.30;99.90
16200;DHT22;8207;52.494;4.654;2022-08-20T07:27:43;20.60;99.90
16200;DHT22;8207;52.494;4.654;2022-08-20T07:30:12;20.90;99.90
16200;DHT22;8207;52.494;4.654;2022-08-20T07:32:57;21.30;99.90
16200;DHT22;8207;52.494;4.654;2022-08-20T07:35:24;21.60;99.90
16200;DHT22;8207;52.494;4.654;2022-08-20T07:37:53;21.90;99.90
16200;DHT22;8207;52.494;4.654;2022-08-20T07:40:21;22.20;99.90
16200;DHT22;8207;52.494;4.654;2022-08-20T07:42:49;22.40;99.90
16200;DHT22;8207;52.494;4.654;2022-08-20T07:45:16;22.70;99.90
16200;DHT22;8207;52.494;4.654;2022-08-20T07:47:44;22.90;99.90
16200;DHT22;8207;52.494;4.654;2022-08-20T07:50:14;23.20;99.90
16200;DHT22;8207;52.494;4.654;2022-08-20T07:52:42;23.40;99.90
16200;DHT22;8207;52.494;4.654;2022-08-20T07:55:13;23.70;99.90
16200;DHT22;8207;52.494;4.654;2022-08-20T07:57:41;23.80;99.90
16200;DHT22;8207;52.494;4.654;2022-08-20T08:00:09;23.90;99.90
16200;DHT22;8207;52.494;4.654;2022-08-20T08:02:37;23.80;99.90
16200;DHT22;8207;52.494;4.654;2022-08-20T08:05:05;23.90;99.90
16200;DHT22;8207;52.494;4.654;2022-08-20T08:07:33;24.10;99.90
16200;DHT22;8207;52.494;4.654;2022-08-20T08:10:01;24.10;99.90
16200;DHT22;8207;52.494;4.654;2022-08-20T08:12:34;24.30;99.90
16200;DHT22;8207;52.494;4.654;2022-08-20T08:15:04;24.50;99.90
16200;DHT22;8207;52.494;4.654;2022-08-20T08:17:31;24.80;99.90
16200;DHT22;8207;52.494;4.654;2022-08-20T08:19:59;24.90;99.90
16200;DHT22;8207;52.494;4.654;2022-08-20T08:22:26;24.90;99.90
16200;DHT22;8207;52.494;4.654;2022-08-20T08:24:53;24.90;99.90
16200;DHT22;8207;52.494;4.654;2022-08-20T08:27:22;24.80;99.90
16200;DHT22;8207;52.494;4.654;2022-08-20T08:29:50;24.80;99.90
16200;DHT22;8207;52.494;4.654;2022-08-20T08:32:17;25.00;99.90
16200;DHT22;8207;52.494;4.654;2022-08-20T08:34:44;25.10;99.90
16200;DHT22;8207;52.494;4.654;2022-08-20T08:37:12;25.30;99.90
16200;DHT22;8207;52.494;4.654;2022-08-20T08:39:38;25.50;99.90
16200;DHT22;8207;52.494;4.654;2022-08-20T08:42:21;25.50;99.90
16200;DHT22;8207;52.494;4.654;2022-08-20T08:44:52;25.60;99.90
16200;DHT22;8207;52.494;4.654;2022-08-20T08:47:25;25.50;99.90
16200;DHT22;8207;52.494;4.654;2022-08-20T08:49:54;25.60;99.90
16200;DHT22;8207;52.494;4.654;2022-08-20T08:52:24;25.70;99.90
16200;DHT22;8207;52.494;4.654;2022-08-20T08:54:53;25.80;99.90
16200;DHT22;8207;52.494;4.654;2022-08-20T08:57:21;25.80;99.90
16200;DHT22;8207;52.494;4.654;2022-08-20T08:59:57;26.00;99.90
16200;DHT22;8207;52.494;4.654;2022-08-20T09:02:26;26.00;99.90
16200;DHT22;8207;52.494;4.654;2022-08-20T09:04:55;26.00;99.90
16200;DHT22;8207;52.494;4.654;2022-08-20T09:07:25;25.80;99.90
16200;DHT22;8207;52.494;4.654;2022-08-20T09:09:52;25.60;99.90
16200;DHT22;8207;52.494;4.654;2022-08-20T09:12:21;25.30;99.90
16200;DHT22;8207;52.494;4.654;2022-08-20T09:14:50;25.00;99.90
16200;DHT22;8207;52.494;4.654;2022-08-20T09:17:20;25.00;99.90
16200;DHT22;8207;52.494;4.654;2022-08-20T09:19:47;24.90;99.90
16200;DHT22;8207;52.494;4.654;2022-08-20T09:22:18;24.90;99.90
16200;DHT22;8207;52.494;4.654;2022-08-20T09:24:45;25.00;99.90
16200;DHT22;8207;52.494;4.654;2022-08-20T09:27:11;25.00;99.90
16200;DHT22;8207;52.494;4.654;2022-08-20T09:29:39;25.00;99.90
16200;DHT22;8207;52.494;4.654;2022-08-20T09:32:08;25.00;99.90
16200;DHT22;8207;52.494;4.654;2022-08-20T09:34:39;25.00;99.90
16200;DHT22;8207;52.494;4.654;2022-08-20T09:37:06;25.10;99.90
16200;DHT22;8207;52.494;4.654;2022-08-20T09:39:33;25.20;99.90
16200;DHT22;8207;52.494;4.654;2022-08-20T09:42:06;25.30;99.90
16200;DHT22;8207;52.494;4.654;2022-08-20T09:44:33;25.50;99.90
16200;DHT22;8207;52.494;4.654;2022-08-20T09:47:00;25.50;99.90
16200;DHT22;8207;52.494;4.654;2022-08-20T09:49:27;25.30;99.90
16200;DHT22;8207;52.494;4.654;2022-08-20T09:51:56;25.50;99.90
16200;DHT22;8207;52.494;4.654;2022-08-20T09:54:24;25.70;99.90
16200;DHT22;8207;52.494;4.654;2022-08-20T09:56:54;25.70;99.90
16200;DHT22;8207;52.494;4.654;2022-08-20T09:59:21;25.80;99.90
16200;DHT22;8207;52.494;4.654;2022-08-20T10:01:48;25.90;99.90
16200;DHT22;8207;52.494;4.654;2022-08-20T10:04:15;26.00;99.90
16200;DHT22;8207;52.494;4.654;2022-08-20T10:06:42;25.80;99.90
16200;DHT22;8207;52.494;4.654;2022-08-20T10:09:10;25.80;99.90
16200;DHT22;8207;52.494;4.654;2022-08-20T10:11:37;25.90;99.90
16200;DHT22;8207;52.494;4.654;2022-08-20T10:14:04;25.80;99.90
16200;DHT22;8207;52.494;4.654;2022-08-20T10:16:31;25.80;99.90
16200;DHT22;8207;52.494;4.654;2022-08-20T10:18:58;25.80;99.90
16200;DHT22;8207;52.494;4.654;2022-08-20T10:21:25;25.70;99.90
16200;DHT22;8207;52.494;4.654;2022-08-20T10:23:52;25.70;99.90
16200;DHT22;8207;52.494;4.654;2022-08-20T10:26:20;25.50;99.90
16200;DHT22;8207;52.494;4.654;2022-08-20T10:28:47;25.40;99.90
16200;DHT22;8207;52.494;4.654;2022-08-20T10:31:14;25.50;99.90
16200;DHT22;8207;52.494;4.654;2022-08-20T10:33:41;25.70;99.90
16200;DHT22;8207;52.494;4.654;2022-08-20T10:36:10;25.60;99.90
16200;DHT22;8207;52.494;4.654;2022-08-20T10:38:37;25.60;99.90
16200;DHT22;8207;52.494;4.654;2022-08-20T10:41:05;25.80;99.90
16200;DHT22;8207;52.494;4.654;2022-08-20T10:43:33;26.10;99.90
16200;DHT22;8207;52.494;4.654;2022-08-20T10:46:01;26.40;99.90
16200;DHT22;8207;52.494;4.654;2022-08-20T10:48:28;26.70;99.90
16200;DHT22;8207;52.494;4.654;2022-08-20T10:50:54;26.90;99.90
16200;DHT22;8207;52.494;4.654;2022-08-20T10:53:21;26.90;99.90
16200;DHT22;8207;52.494;4.654;2022-08-20T10:55:48;26.70;99.90
16200;DHT22;8207;52.494;4.654;2022-08-20T10:58:15;26.30;99.90
16200;DHT22;8207;52.494;4.654;2022-08-20T11:00:43;26.30;99.90
16200;DHT22;8207;52.494;4.654;2022-08-20T11:03:11;26.50;99.90
16200;DHT22;8207;52.494;4.654;2022-08-20T11:05:38;26.80;99.90
16200;DHT22;8207;52.494;4.654;2022-08-20T11:08:05;27.10;99.90
16200;DHT22;8207;52.494;4.654;2022-08-20T11:10:33;27.30;99.90
16200;DHT22;8207;52.494;4.654;2022-08-20T11:13:02;27.50;99.90
16200;DHT22;8207;52.494;4.654;2022-08-20T11:15:37;27.70;99.90
16200;DHT22;8207;52.494;4.654;2022-08-20T11:18:06;27.90;99.90
16200;DHT22;8207;52.494;4.654;2022-08-20T11:20:33;28.10;99.90
16200;DHT22;8207;52.494;4.654;2022-08-20T11:23:00;28.20;99.90
16200;DHT22;8207;52.494;4.654;2022-08-20T11:25:27;28.30;99.90
16200;DHT22;8207;52.494;4.654;2022-08-20T11:27:55;28.50;99.90
16200;DHT22;8207;52.494;4.654;2022-08-20T11:30:25;28.40;99.90
16200;DHT22;8207;52.494;4.654;2022-08-20T11:32:52;28.50;99.90
16200;DHT22;8207;52.494;4.654;2022-08-20T11:35:20;28.60;99.90
16200;DHT22;8207;52.494;4.654;2022-08-20T11:37:48;28.70;99.90
16200;DHT22;8207;52.494;4.654;2022-08-20T11:40:15;28.70;99.90
16200;DHT22;8207;52.494;4.654;2022-08-20T11:42:42;28.70;99.90
16200;DHT22;8207;52.494;4.654;2022-08-20T11:45:10;28.50;99.90
16200;DHT22;8207;52.494;4.654;2022-08-20T11:47:37;28.30;99.90
16200;DHT22;8207;52.494;4.654;2022-08-20T11:50:06;28.50;99.90
16200;DHT22;8207;52.494;4.654;2022-08-20T11:52:35;28.50;99.90
16200;DHT22;8207;52.494;4.654;2022-08-20T11:55:03;28.50;99.90
16200;DHT22;8207;52.494;4.654;2022-08-20T11:57:33;28.60;99.90
16200;DHT22;8207;52.494;4.654;2022-08-20T12:00:03;28.50;99.90
16200;DHT22;8207;52.494;4.654;2022-08-20T12:02:30;28.30;99.90
16200;DHT22;8207;52.494;4.654;2022-08-20T12:04:57;28.10;99.90
16200;DHT22;8207;52.494;4.654;2022-08-20T12:07:24;28.10;99.90
16200;DHT22;8207;52.494;4.654;2022-08-20T12:09:53;28.20;99.90
16200;DHT22;8207;52.494;4.654;2022-08-20T12:12:21;28.30;99.90
16200;DHT22;8207;52.494;4.654;2022-08-20T12:14:49;28.30;99.90
16200;DHT22;8207;52.494;4.654;2022-08-20T12:17:17;28.40;99.90
16200;DHT22;8207;52.494;4.654;2022-08-20T12:19:46;28.30;99.90
16200;DHT22;8207;52.494;4.654;2022-08-20T12:22:13;28.40;99.90
16200;DHT22;8207;52.494;4.654;2022-08-20T12:24:40;28.40;99.90
16200;DHT22;8207;52.494;4.654;2022-08-20T12:27:09;28.50;99.90
16200;DHT22;8207;52.494;4.654;2022-08-20T12:29:40;28.50;99.90
16200;DHT22;8207;52.494;4.654;2022-08-20T12:32:08;28.50;99.90
16200;DHT22;8207;52.494;4.654;2022-08-20T12:34:36;28.50;99.90
16200;DHT22;8207;52.494;4.654;2022-08-20T12:37:06;28.50;99.90
16200;DHT22;8207;52.494;4.654;2022-08-20T12:39:33;28.30;99.90
16200;DHT22;8207;52.494;4.654;2022-08-20T12:42:01;28.20;99.90
16200;DHT22;8207;52.494;4.654;2022-08-20T12:44:29;28.30;99.90
16200;DHT22;8207;52.494;4.654;2022-08-20T12:47:05;28.20;99.90
16200;DHT22;8207;52.494;4.654;2022-08-20T12:49:33;28.20;99.90
16200;DHT22;8207;52.494;4.654;2022-08-20T12:52:01;28.30;99.90
16200;DHT22;8207;52.494;4.654;2022-08-20T12:54:28;28.20;99.90
16200;DHT22;8207;52.494;4.654;2022-08-20T12:56:54;28.20;99.90
16200;DHT22;8207;52.494;4.654;2022-08-20T12:59:22;28.20;99.90
16200;DHT22;8207;52.494;4.654;2022-08-20T13:01:51;28.00;99.90
16200;DHT22;8207;52.494;4.654;2022-08-20T13:04:19;28.00;99.90
16200;DHT22;8207;52.494;4.654;2022-08-20T13:06:46;27.90;99.90
16200;DHT22;8207;52.494;4.654;2022-08-20T13:09:15;27.70;99.90
16200;DHT22;8207;52.494;4.654;2022-08-20T13:11:42;27.70;99.90
16200;DHT22;8207;52.494;4.654;2022-08-20T13:14:09;27.50;99.90
16200;DHT22;8207;52.494;4.654;2022-08-20T13:16:36;27.60;99.90
16200;DHT22;8207;52.494;4.654;2022-08-20T13:19:05;27.50;99.90
16200;DHT22;8207;52.494;4.654;2022-08-20T13:21:31;27.50;99.90
16200;DHT22;8207;52.494;4.654;2022-08-20T13:23:58;27.40;99.90
16200;DHT22;8207;52.494;4.654;2022-08-20T13:26:25;27.10;99.90
16200;DHT22;8207;52.494;4.654;2022-08-20T13:28:52;26.80;99.90
16200;DHT22;8207;52.494;4.654;2022-08-20T13:31:19;26.50;99.90
16200;DHT22;8207;52.494;4.654;2022-08-20T13:33:46;26.20;99.90
16200;DHT22;8207;52.494;4.654;2022-08-20T13:36:14;26.10;99.90
16200;DHT22;8207;52.494;4.654;2022-08-20T13:38:41;26.20;99.90
16200;DHT22;8207;52.494;4.654;2022-08-20T13:41:08;26.20;99.90
16200;DHT22;8207;52.494;4.654;2022-08-20T13:43:35;26.00;99.90
16200;DHT22;8207;52.494;4.654;2022-08-20T13:46:02;26.00;99.90
16200;DHT22;8207;52.494;4.654;2022-08-20T13:48:29;26.00;99.90
16200;DHT22;8207;52.494;4.654;2022-08-20T13:50:56;26.10;99.90
16200;DHT22;8207;52.494;4.654;2022-08-20T13:53:25;26.00;99.90
16200;DHT22;8207;52.494;4.654;2022-08-20T13:55:51;25.90;99.90
16200;DHT22;8207;52.494;4.654;2022-08-20T13:58:18;25.80;99.90
16200;DHT22;8207;52.494;4.654;2022-08-20T14:00:48;25.60;99.90
16200;DHT22;8207;52.494;4.654;2022-08-20T14:03:15;25.40;99.90
16200;DHT22;8207;52.494;4.654;2022-08-20T14:05:43;25.20;99.90
16200;DHT22;8207;52.494;4.654;2022-08-20T14:08:13;25.00;99.90
16200;DHT22;8207;52.494;4.654;2022-08-20T14:10:42;24.90;99.90
16200;DHT22;8207;52.494;4.654;2022-08-20T14:13:09;24.90;99.90
16200;DHT22;8207;52.494;4.654;2022-08-20T14:15:37;24.80;99.90
16200;DHT22;8207;52.494;4.654;2022-08-20T14:18:04;24.80;99.90
16200;DHT22;8207;52.494;4.654;2022-08-20T14:20:32;24.70;99.90
16200;DHT22;8207;52.494;4.654;2022-08-20T14:23:00;24.60;99.90
16200;DHT22;8207;52.494;4.654;2022-08-20T14:25:28;24.50;99.90
16200;DHT22;8207;52.494;4.654;2022-08-20T14:27:56;24.50;99.90
16200;DHT22;8207;52.494;4.654;2022-08-20T14:30:26;24.60;99.90
16200;DHT22;8207;52.494;4.654;2022-08-20T14:32:54;24.60;99.90
16200;DHT22;8207;52.494;4.654;2022-08-20T14:35:21;24.50;99.90
16200;DHT22;8207;52.494;4.654;2022-08-20T14:37:50;24.40;99.90
16200;DHT22;8207;52.494;4.654;2022-08-20T14:40:19;24.40;99.90
16200;DHT22;8207;52.494;4.654;2022-08-20T14:42:46;24.40;99.90
16200;DHT22;8207;52.494;4.654;2022-08-20T14:45:16;24.40;99.90
16200;DHT22;8207;52.494;4.654;2022-08-20T14:47:45;24.40;99.90
16200;DHT22;8207;52.494;4.654;2022-08-20T14:50:15;24.30;99.90
16200;DHT22;8207;52.494;4.654;2022-08-20T14:52:43;24.30;99.90
16200;DHT22;8207;52.494;4.654;2022-08-20T14:55:12;24.30;99.90
16200;DHT22;8207;52.494;4.654;2022-08-20T14:57:40;24.20;99.90
16200;DHT22;8207;52.494;4.654;2022-08-20T15:00:11;24.10;99.90
16200;DHT22;8207;52.494;4.654;2022-08-20T15:02:40;24.10;99.90
16200;DHT22;8207;52.494;4.654;2022-08-20T15:05:07;23.90;99.90
16200;DHT22;8207;52.494;4.654;2022-08-20T15:07:36;23.90;99.90
16200;DHT22;8207;52.494;4.654;2022-08-20T15:10:06;23.90;99.90
16200;DHT22;8207;52.494;4.654;2022-08-20T15:12:33;23.90;99.90
16200;DHT22;8207;52.494;4.654;2022-08-20T15:15:00;23.90;99.90
16200;DHT22;8207;52.494;4.654;2022-08-20T15:17:28;23.90;99.90
16200;DHT22;8207;52.494;4.654;2022-08-20T15:19:57;23.90;99.90
16200;DHT22;8207;52.494;4.654;2022-08-20T15:22:24;23.70;99.90
16200;DHT22;8207;52.494;4.654;2022-08-20T15:24:50;23.80;99.90
16200;DHT22;8207;52.494;4.654;2022-08-20T15:27:21;23.70;99.90
16200;DHT22;8207;52.494;4.654;2022-08-20T15:29:49;23.80;99.90
16200;DHT22;8207;52.494;4.654;2022-08-20T15:32:16;23.80;99.90
16200;DHT22;8207;52.494;4.654;2022-08-20T15:34:44;23.80;99.90
16200;DHT22;8207;52.494;4.654;2022-08-20T15:37:15;23.70;99.90
16200;DHT22;8207;52.494;4.654;2022-08-20T15:39:43;23.70;99.90
16200;DHT22;8207;52.494;4.654;2022-08-20T15:42:11;23.60;99.90
16200;DHT22;8207;52.494;4.654;2022-08-20T15:44:39;23.60;99.90
16200;DHT22;8207;52.494;4.654;2022-08-20T15:47:27;23.60;99.90
16200;DHT22;8207;52.494;4.654;2022-08-20T15:49:59;23.50;99.90
16200;DHT22;8207;52.494;4.654;2022-08-20T15:52:32;23.40;99.90